Terminal Aerodrome Forecast
Issued by NWS Wilmington, NC

Home | Current Version | Previous Version | Text Only | Print | Product List | Glossary On
Versions: 1 2 3 4 5 6 7 8 9 10 11 12 13 14 15 16 17 18 19 20 21 22 23 24 25
265
FTUS42 KILM 231314 AAA
TAFFLO
TAF AMD
KFLO 231314Z 2313/2412 24005KT P6SM BKN020
     FM231500 24007KT P6SM VCSH SCT035 BKN070
      TEMPO 2318/2322 6SM -SHRA BKN035
     FM241000 VRB02KT 1SM BR BKN004=

USA.gov is the U.S. government's official web portal to all federal, state and local government web resources and services.